createdAt,value
2022-12-29T00:02:13.241Z,100127.28
2022-12-29T00:04:45.299Z,100131.56
2022-12-29T00:07:17.766Z,100131.50
2022-12-29T00:09:50.211Z,100117.63
2022-12-29T00:12:22.314Z,100101.03
2022-12-29T00:15:12.682Z,100124.56
2022-12-29T00:17:44.607Z,100114.13
2022-12-29T00:20:35.148Z,100104.50
2022-12-29T00:23:28.450Z,100100.13
2022-12-29T00:26:23.471Z,100112.25
2022-12-29T00:29:13.826Z,100099.09
2022-12-29T00:32:04.541Z,100099.19
2022-12-29T00:34:54.896Z,100089.41
2022-12-29T00:37:47.131Z,100086.03
2022-12-29T00:40:37.500Z,100074.81
2022-12-29T00:43:28.268Z,100081.69
2022-12-29T00:46:00.278Z,100072.91
2022-12-29T00:48:50.571Z,100079.84
2022-12-29T00:51:22.550Z,100078.03
2022-12-29T00:53:54.580Z,100079.78
2022-12-29T00:56:26.687Z,100072.81
2022-12-29T00:59:06.953Z,100063.31
2022-12-29T01:01:40.402Z,100062.50
2022-12-29T01:04:13.045Z,100051.16
2022-12-29T01:06:45.112Z,100058.25
2022-12-29T01:09:36.499Z,100058.13
2022-12-29T01:12:10.189Z,100051.94
2022-12-29T01:14:42.219Z,100052.94
2022-12-29T01:17:14.209Z,100043.31
2022-12-29T01:19:46.597Z,100045.78
2022-12-29T01:22:18.611Z,100038.81
2022-12-29T01:24:50.743Z,100043.19
2022-12-29T01:27:22.773Z,100045.84
2022-12-29T01:29:54.746Z,100044.88
2022-12-29T01:32:26.855Z,100044.84
2022-12-29T01:34:58.802Z,100026.47
2022-12-29T01:37:31.009Z,100030.63
2022-12-29T01:40:03.267Z,100021.22
2022-12-29T01:42:35.331Z,100009.78
2022-12-29T01:45:14.184Z,100029.03
2022-12-29T01:47:58.989Z,100024.56
2022-12-29T01:50:36.495Z,100007.09
2022-12-29T01:53:27.342Z,100023.63
2022-12-29T01:56:06.182Z,100007.06
2022-12-29T01:58:44.291Z,99999.94
2022-12-29T02:01:19.690Z,100004.06
2022-12-29T02:03:52.976Z,99992.06
2022-12-29T02:06:30.757Z,99986.13
2022-12-29T02:09:02.960Z,99999.97
2022-12-29T02:11:37.721Z,99990.22
2022-12-29T02:14:12.796Z,99993.72
2022-12-29T02:17:17.425Z,99978.03
2022-12-29T02:20:01.885Z,99983.41
2022-12-29T02:22:51.894Z,99988.63
2022-12-29T02:25:46.429Z,99982.34
2022-12-29T02:29:08.631Z,99971.69
2022-12-29T02:31:50.235Z,99965.66
2022-12-29T02:35:03.697Z,99974.34
2022-12-29T02:37:53.072Z,99970.88
2022-12-29T02:40:41.032Z,99969.81
2022-12-29T02:43:45.022Z,99967.34
2022-12-29T02:46:48.857Z,99966.50
2022-12-29T02:49:36.913Z,99952.53
2022-12-29T02:52:17.144Z,99959.41
2022-12-29T02:54:50.960Z,99957.59
2022-12-29T02:57:22.794Z,99971.44
2022-12-29T03:00:24.738Z,99959.22
2022-12-29T03:03:17.082Z,99948.84
2022-12-29T03:06:15.837Z,99952.22
2022-12-29T03:08:50.788Z,99939.13
2022-12-29T03:11:47.780Z,99939.72
2022-12-29T03:14:52.331Z,99935.34
2022-12-29T03:18:08.487Z,99926.75
2022-12-29T03:20:55.716Z,99918.97
2022-12-29T03:23:29.705Z,99927.13
2022-12-29T03:26:06.656Z,99933.09
2022-12-29T03:28:47.664Z,99911.56
2022-12-29T03:31:21.405Z,99908.78
2022-12-29T03:33:56.733Z,99900.94
2022-12-29T03:36:47.623Z,99906.47
2022-12-29T03:39:23.453Z,99896.75
2022-12-29T03:42:04.262Z,99894.19
2022-12-29T03:44:45.827Z,99892.22
2022-12-29T03:47:17.914Z,99885.28
2022-12-29T03:49:51.374Z,99885.53
2022-12-29T03:52:23.374Z,99895.94
2022-12-29T03:54:55.323Z,99895.31
2022-12-29T03:57:27.279Z,99890.19
2022-12-29T03:59:59.214Z,99890.88
2022-12-29T04:02:31.506Z,99885.53
2022-12-29T04:05:03.997Z,99882.13
2022-12-29T04:07:35.962Z,99872.53
2022-12-29T04:10:08.406Z,99874.47
2022-12-29T04:12:42.685Z,99866.81
2022-12-29T04:15:14.768Z,99872.16
2022-12-29T04:17:46.775Z,99872.84
2022-12-29T04:20:37.024Z,99871.97
2022-12-29T04:23:09.177Z,99868.66
2022-12-29T04:25:41.187Z,99855.59
2022-12-29T04:28:13.168Z,99868.66
2022-12-29T04:30:47.742Z,99867.88
2022-12-29T04:33:20.647Z,99866.13
2022-12-29T04:35:55.025Z,99864.16
2022-12-29T04:38:27.061Z,99844.13
2022-12-29T04:41:02.473Z,99858.22
2022-12-29T04:43:34.420Z,99861.56
2022-12-29T04:46:06.893Z,99863.16
2022-12-29T04:48:39.395Z,99867.69
2022-12-29T04:51:11.321Z,99877.25
2022-12-29T04:53:43.288Z,99876.31
2022-12-29T04:56:15.210Z,99873.47
2022-12-29T04:58:47.155Z,99871.75
2022-12-29T05:01:19.189Z,99867.31
2022-12-29T05:03:53.099Z,99864.56
2022-12-29T05:06:25.141Z,99865.47
2022-12-29T05:08:57.101Z,99878.31
2022-12-29T05:11:29.020Z,99876.63
2022-12-29T05:14:01.012Z,99873.41
2022-12-29T05:16:33.050Z,99877.91
2022-12-29T05:19:05.612Z,99878.97
2022-12-29T05:21:37.556Z,99872.00
2022-12-29T05:24:09.642Z,99884.31
2022-12-29T05:26:41.657Z,99887.19
2022-12-29T05:29:13.663Z,99870.75
2022-12-29T05:31:45.766Z,99882.16
2022-12-29T05:34:17.773Z,99881.31
2022-12-29T05:36:50.475Z,99877.00
2022-12-29T05:39:22.681Z,99891.03
2022-12-29T05:41:54.674Z,99884.94
2022-12-29T05:44:26.806Z,99896.28
2022-12-29T05:46:58.816Z,99901.38
2022-12-29T05:49:30.880Z,99883.84
2022-12-29T05:52:02.801Z,99881.19
2022-12-29T05:54:34.771Z,99874.25
2022-12-29T05:57:06.838Z,99872.50
2022-12-29T05:59:38.797Z,99877.66
2022-12-29T06:02:11.667Z,99867.06
2022-12-29T06:04:43.731Z,99866.03
2022-12-29T06:07:15.737Z,99869.34
2022-12-29T06:09:47.688Z,99852.75
2022-12-29T06:12:19.651Z,99862.22
2022-12-29T06:14:51.634Z,99863.03
2022-12-29T06:17:23.558Z,99848.44
2022-12-29T06:19:55.577Z,99842.34
2022-12-29T06:22:27.550Z,99839.69
2022-12-29T06:25:04.640Z,99843.31
2022-12-29T06:27:37.270Z,99838.75
2022-12-29T06:30:10.424Z,99841.50
2022-12-29T06:32:42.656Z,99842.31
2022-12-29T06:35:14.648Z,99843.22
2022-12-29T06:37:46.615Z,99836.41
2022-12-29T06:40:19.034Z,99850.28
2022-12-29T06:42:50.949Z,99860.78
2022-12-29T06:45:22.932Z,99858.38
2022-12-29T06:47:54.876Z,99861.84
2022-12-29T06:50:26.813Z,99864.59
2022-12-29T06:52:58.817Z,99892.53
2022-12-29T06:55:30.777Z,99891.78
2022-12-29T06:58:02.743Z,99903.78
2022-12-29T07:00:35.705Z,99908.03
2022-12-29T07:03:07.861Z,99901.00
2022-12-29T07:05:39.901Z,99879.31
2022-12-29T07:08:11.922Z,99895.00
2022-12-29T07:10:43.905Z,99894.25
2022-12-29T07:13:15.869Z,99892.50
2022-12-29T07:15:47.819Z,99891.56
2022-12-29T07:18:19.806Z,99894.31
2022-12-29T07:20:51.758Z,99898.75
2022-12-29T07:23:23.675Z,99896.38
2022-12-29T07:26:08.374Z,99902.56
2022-12-29T07:28:40.570Z,99908.81
2022-12-29T07:31:19.547Z,99914.94
2022-12-29T07:33:51.540Z,99921.81
2022-12-29T07:36:26.063Z,99921.81
2022-12-29T07:39:01.490Z,99930.59
2022-12-29T07:41:33.873Z,99940.28
2022-12-29T07:44:05.902Z,99937.66
2022-12-29T07:46:54.479Z,99936.69
2022-12-29T07:49:28.838Z,99938.25
2022-12-29T07:52:00.948Z,99932.22
2022-12-29T07:54:32.992Z,99945.22
2022-12-29T07:57:06.887Z,99948.50
2022-12-29T07:59:38.830Z,99951.31
2022-12-29T08:02:13.901Z,99948.72
2022-12-29T08:04:45.958Z,99967.91
2022-12-29T08:07:17.946Z,99962.81
2022-12-29T08:09:49.931Z,99965.53
2022-12-29T08:12:21.991Z,99983.69
2022-12-29T08:14:54.576Z,99966.28
2022-12-29T08:17:26.606Z,99969.59
2022-12-29T08:19:58.674Z,99973.09
2022-12-29T08:22:30.641Z,99967.16
2022-12-29T08:25:02.704Z,99982.84
2022-12-29T08:27:34.633Z,99979.25
2022-12-29T08:30:07.559Z,99989.75
2022-12-29T08:32:39.530Z,99995.81
2022-12-29T08:35:11.640Z,100000.19
2022-12-29T08:37:44.015Z,100006.31
2022-12-29T08:40:16.333Z,100006.31
2022-12-29T08:42:48.296Z,100006.03
2022-12-29T08:45:20.501Z,100020.09
2022-12-29T08:47:52.475Z,100015.56
2022-12-29T08:50:24.465Z,100022.47
2022-12-29T08:52:56.528Z,100019.03
2022-12-29T08:55:28.495Z,100022.50
2022-12-29T08:58:00.499Z,100021.59
2022-12-29T09:00:32.473Z,100016.34
2022-12-29T09:03:04.628Z,100024.97
2022-12-29T09:05:36.814Z,100030.28
2022-12-29T09:08:08.758Z,100020.44
2022-12-29T09:10:40.768Z,100022.22
2022-12-29T09:13:14.780Z,100034.47
2022-12-29T09:15:46.789Z,100020.56
2022-12-29T09:18:21.347Z,100020.28
2022-12-29T09:21:02.112Z,100052.59
2022-12-29T09:23:34.802Z,100046.41
2022-12-29T09:26:08.450Z,100038.75
2022-12-29T09:28:41.253Z,100048.22
2022-12-29T09:31:13.621Z,100042.13
2022-12-29T09:33:45.759Z,100040.44
2022-12-29T09:36:17.690Z,100040.34
2022-12-29T09:38:49.679Z,100040.19
2022-12-29T09:41:30.645Z,100032.25
2022-12-29T09:44:20.187Z,100036.69
2022-12-29T09:46:55.032Z,100048.19
2022-12-29T09:49:57.979Z,100040.25
2022-12-29T09:52:58.617Z,100038.53
2022-12-29T09:55:40.192Z,100050.63
2022-12-29T09:58:18.015Z,100054.81
2022-12-29T10:01:23.237Z,100070.63
2022-12-29T10:03:58.475Z,100064.56
2022-12-29T10:07:03.666Z,100051.50
2022-12-29T10:10:02.505Z,100053.06
2022-12-29T10:12:53.320Z,100037.50
2022-12-29T10:16:16.154Z,100039.31
2022-12-29T10:18:57.094Z,100034.91
2022-12-29T10:22:02.364Z,100039.44
2022-12-29T10:24:39.023Z,100034.13
2022-12-29T10:27:14.405Z,100043.88
2022-12-29T10:29:56.440Z,100045.66
2022-12-29T10:32:33.641Z,100041.09
2022-12-29T10:35:19.356Z,100045.19
2022-12-29T10:38:11.457Z,100048.44
2022-12-29T10:40:59.737Z,100055.47
2022-12-29T10:43:55.100Z,100065.91
2022-12-29T10:46:34.713Z,100054.72
2022-12-29T10:49:21.224Z,100054.59
2022-12-29T10:51:58.502Z,100050.94
2022-12-29T10:55:01.490Z,100057.09
2022-12-29T10:57:47.853Z,100056.25
2022-12-29T11:00:22.919Z,100056.69
2022-12-29T11:03:04.057Z,100055.78
2022-12-29T11:05:54.855Z,100047.09
2022-12-29T11:08:32.557Z,100046.31
2022-12-29T11:11:08.789Z,100056.22
2022-12-29T11:13:58.054Z,100044.00
2022-12-29T11:16:33.913Z,100052.66
2022-12-29T11:19:06.390Z,100054.09
2022-12-29T11:21:42.936Z,100048.84
2022-12-29T11:24:25.338Z,100039.91
2022-12-29T11:27:20.573Z,100030.53
2022-12-29T11:29:54.923Z,100039.13
2022-12-29T11:32:33.073Z,100039.97
2022-12-29T11:35:05.817Z,100046.53
2022-12-29T11:37:41.320Z,100038.63
2022-12-29T11:40:21.931Z,100038.75
2022-12-29T11:43:03.800Z,100043.97
2022-12-29T11:45:38.322Z,100038.94
2022-12-29T11:48:23.189Z,100029.31
2022-12-29T11:51:00.711Z,100045.00
2022-12-29T11:53:48.635Z,100052.72
2022-12-29T11:56:43.045Z,100043.25
2022-12-29T11:59:35.277Z,100039.69
2022-12-29T12:03:00.157Z,100055.91
2022-12-29T12:05:57.065Z,100061.56
2022-12-29T12:08:48.796Z,100062.16
2022-12-29T12:11:27.728Z,100046.75
2022-12-29T12:14:13.453Z,100056.91
2022-12-29T12:16:55.876Z,100052.66
2022-12-29T12:19:58.320Z,100069.44
2022-12-29T12:22:54.600Z,100067.72
2022-12-29T12:25:38.460Z,100066.56
2022-12-29T12:28:21.938Z,100072.94
2022-12-29T12:30:58.631Z,100091.22
2022-12-29T12:33:37.522Z,100072.59
2022-12-29T12:36:19.933Z,100077.03
2022-12-29T12:39:24.564Z,100079.97
2022-12-29T12:42:19.296Z,100076.31
2022-12-29T12:45:22.221Z,100085.94
2022-12-29T12:48:32.940Z,100084.47
2022-12-29T12:51:48.326Z,100104.59
2022-12-29T12:54:59.673Z,100104.13
2022-12-29T12:58:06.603Z,100108.06
2022-12-29T13:01:19.957Z,100102.94
2022-12-29T13:04:18.273Z,100122.97
2022-12-29T13:07:03.416Z,100131.63
2022-12-29T13:10:16.292Z,100134.16
2022-12-29T13:13:35.872Z,100143.75
2022-12-29T13:16:41.602Z,100150.09
2022-12-29T13:19:40.806Z,100156.34
2022-12-29T13:22:39.589Z,100163.28
2022-12-29T13:25:47.740Z,100183.22
2022-12-29T13:28:51.163Z,100178.19
2022-12-29T13:32:13.803Z,100187.69
2022-12-29T13:35:33.275Z,100179.06
2022-12-29T13:38:20.237Z,100187.69
2022-12-29T13:40:58.450Z,100203.16
2022-12-29T13:43:33.189Z,100231.97
2022-12-29T13:46:14.347Z,100208.47
2022-12-29T13:49:09.999Z,100195.34
2022-12-29T13:51:49.612Z,100219.66
2022-12-29T13:54:54.341Z,100226.59
2022-12-29T13:58:04.910Z,100231.72
2022-12-29T14:01:17.332Z,100234.25
2022-12-29T14:04:02.604Z,100240.41
2022-12-29T14:06:41.672Z,100241.22
2022-12-29T14:09:50.061Z,100251.78
2022-12-29T14:12:34.682Z,100266.66
2022-12-29T14:15:12.728Z,100269.22
2022-12-29T14:17:45.847Z,100265.66
2022-12-29T14:20:26.953Z,100270.84
2022-12-29T14:23:09.330Z,100282.03
2022-12-29T14:25:57.768Z,100280.41
2022-12-29T14:28:36.027Z,100287.28
2022-12-29T14:31:19.547Z,100289.81
2022-12-29T14:34:10.275Z,100275.03
2022-12-29T14:36:57.724Z,100289.97
2022-12-29T14:39:43.604Z,100300.31
2022-12-29T14:42:23.520Z,100295.50
2022-12-29T14:45:27.712Z,100293.88
2022-12-29T14:48:00.361Z,100297.16
2022-12-29T14:50:44.465Z,100305.72
2022-12-29T14:53:44.456Z,100318.03
2022-12-29T14:56:21.260Z,100327.81
2022-12-29T14:59:04.394Z,100324.69
2022-12-29T15:01:50.226Z,100319.56
2022-12-29T15:04:27.922Z,100323.88
2022-12-29T15:07:04.435Z,100330.00
2022-12-29T15:09:50.479Z,100322.19
2022-12-29T15:12:48.952Z,100329.19
2022-12-29T15:15:24.243Z,100336.09
2022-12-29T15:17:56.306Z,100337.81
2022-12-29T15:20:32.600Z,100344.72
2022-12-29T15:23:12.471Z,100341.25
2022-12-29T15:25:58.977Z,100346.56
2022-12-29T15:28:39.869Z,100368.41
2022-12-29T15:31:27.812Z,100349.38
2022-12-29T15:34:13.523Z,100353.75
2022-12-29T15:36:45.568Z,100364.16
2022-12-29T15:39:47.042Z,100352.91
2022-12-29T15:42:43.843Z,100363.28
2022-12-29T15:45:16.578Z,100368.50
2022-12-29T15:47:50.914Z,100377.09
2022-12-29T15:50:32.012Z,100377.09
2022-12-29T15:53:12.465Z,100372.78
2022-12-29T15:55:45.552Z,100378.81
2022-12-29T15:58:29.839Z,100389.25
2022-12-29T16:01:03.043Z,100393.66
2022-12-29T16:03:37.594Z,100398.03
2022-12-29T16:06:27.405Z,100398.03
2022-12-29T16:09:44.851Z,100405.81
2022-12-29T16:12:22.321Z,100404.13
2022-12-29T16:15:13.934Z,100392.81
2022-12-29T16:17:54.061Z,100397.16
2022-12-29T16:20:40.849Z,100398.88
2022-12-29T16:23:27.272Z,100398.03
2022-12-29T16:26:12.046Z,100393.66
2022-12-29T16:28:44.473Z,100389.28
2022-12-29T16:31:47.027Z,100381.41
2022-12-29T16:34:38.656Z,100392.72
2022-12-29T16:37:29.865Z,100386.66
2022-12-29T16:40:34.129Z,100394.47
2022-12-29T16:43:20.430Z,100399.69
2022-12-29T16:45:52.596Z,100397.06
2022-12-29T16:48:32.392Z,100401.44
2022-12-29T16:51:17.472Z,100407.44
2022-12-29T16:53:55.165Z,100400.53
2022-12-29T16:56:35.735Z,100404.88
2022-12-29T16:59:32.276Z,100401.38
2022-12-29T17:02:15.557Z,100405.75
2022-12-29T17:04:50.742Z,100403.13
2022-12-29T17:07:26.655Z,100408.38
2022-12-29T17:09:59.104Z,100411.03
2022-12-29T17:12:34.917Z,100411.91
2022-12-29T17:15:16.197Z,100414.44
2022-12-29T17:17:50.487Z,100415.28
2022-12-29T17:20:30.994Z,100413.50
2022-12-29T17:23:05.896Z,100404.00
2022-12-29T17:25:38.759Z,100409.19
2022-12-29T17:28:27.759Z,100414.47
2022-12-29T17:31:06.923Z,100406.69
2022-12-29T17:33:40.391Z,100409.28
2022-12-29T17:36:12.736Z,100418.81
2022-12-29T17:38:44.744Z,100418.78
2022-12-29T17:41:16.755Z,100415.34
2022-12-29T17:43:48.741Z,100413.63
2022-12-29T17:46:21.000Z,100414.50
2022-12-29T17:48:54.042Z,100414.44
2022-12-29T17:51:26.427Z,100406.56
2022-12-29T17:53:58.420Z,100411.69
2022-12-29T17:56:30.860Z,100416.03
2022-12-29T17:59:02.883Z,100418.59
2022-12-29T18:01:38.076Z,100413.38
2022-12-29T18:04:21.934Z,100418.59
2022-12-29T18:06:53.901Z,100415.09
2022-12-29T18:09:25.964Z,100427.28
2022-12-29T18:11:58.004Z,100431.63
2022-12-29T18:14:30.013Z,100430.03
2022-12-29T18:17:02.025Z,100418.72
2022-12-29T18:19:36.083Z,100428.28
2022-12-29T18:22:09.388Z,100423.13
2022-12-29T18:24:41.453Z,100429.22
2022-12-29T18:27:19.563Z,100425.72
2022-12-29T18:29:51.871Z,100425.72
2022-12-29T18:32:24.258Z,100425.75
2022-12-29T18:34:56.269Z,100426.56
2022-12-29T18:37:28.304Z,100435.31
2022-12-29T18:40:00.551Z,100431.84
2022-12-29T18:42:32.519Z,100434.44
2022-12-29T18:45:19.533Z,100433.63
2022-12-29T18:47:51.687Z,100442.31
2022-12-29T18:50:23.724Z,100439.66
2022-12-29T18:53:01.583Z,100444.88
2022-12-29T18:55:35.816Z,100450.88
2022-12-29T18:58:08.103Z,100452.56
2022-12-29T19:00:40.707Z,100455.19
2022-12-29T19:03:18.880Z,100467.38
2022-12-29T19:05:51.325Z,100470.03
2022-12-29T19:08:23.341Z,100461.34
2022-12-29T19:10:55.437Z,100465.72
2022-12-29T19:13:29.560Z,100475.22
2022-12-29T19:16:01.647Z,100471.75
2022-12-29T19:19:05.718Z,100474.31
2022-12-29T19:21:25.764Z,100476.88
2022-12-29T19:23:57.781Z,100482.09
2022-12-29T19:26:39.452Z,100473.38
2022-12-29T19:29:18.333Z,100469.94
2022-12-29T19:31:50.516Z,100473.44
2022-12-29T19:34:22.592Z,100469.09
2022-12-29T19:36:54.575Z,100476.13
2022-12-29T19:39:26.609Z,100478.81
2022-12-29T19:42:03.562Z,100475.41
2022-12-29T19:44:37.535Z,100476.31
2022-12-29T19:47:09.775Z,100502.41
2022-12-29T19:49:43.604Z,100510.19
2022-12-29T19:52:16.046Z,100511.84
2022-12-29T19:54:48.027Z,100517.00
2022-12-29T19:57:21.917Z,100512.66
2022-12-29T19:59:56.738Z,100507.41
2022-12-29T20:02:34.869Z,100518.69
2022-12-29T20:05:08.671Z,100516.06
2022-12-29T20:07:41.527Z,100511.75
2022-12-29T20:10:17.267Z,100515.25
2022-12-29T20:12:49.354Z,100515.25
2022-12-29T20:15:21.414Z,100524.81
2022-12-29T20:20:45.589Z,100530.03
2022-12-29T20:23:17.671Z,100531.78
2022-12-29T20:25:56.341Z,100538.72
2022-12-29T20:28:29.734Z,100543.06
2022-12-29T20:31:08.716Z,100557.84
2022-12-29T20:33:41.046Z,100552.63
2022-12-29T20:36:20.951Z,100552.59
2022-12-29T20:38:55.774Z,100541.28
2022-12-29T20:41:31.483Z,100546.47
2022-12-29T20:44:05.374Z,100553.38
2022-12-29T20:46:43.542Z,100549.06
2022-12-29T20:49:16.426Z,100552.53
2022-12-29T20:52:05.797Z,100561.22
2022-12-29T20:54:39.721Z,100556.88
2022-12-29T20:57:13.473Z,100557.75
2022-12-29T20:59:48.556Z,100573.38
2022-12-29T21:02:23.279Z,100573.38
2022-12-29T21:07:51.373Z,100565.59
2022-12-29T21:10:23.653Z,100566.47
2022-12-29T21:12:55.859Z,100577.72
2022-12-29T21:15:32.920Z,100582.13
2022-12-29T21:18:05.087Z,100580.38
2022-12-29T21:20:37.433Z,100589.94
2022-12-29T21:23:10.753Z,100598.59
2022-12-29T21:25:45.372Z,100596.00
2022-12-29T21:28:17.417Z,100597.72
2022-12-29T21:30:50.775Z,100582.06
2022-12-29T21:33:22.900Z,100589.84
2022-12-29T21:35:54.866Z,100582.91
2022-12-29T21:38:29.580Z,100585.50
2022-12-29T21:41:15.540Z,100588.97
2022-12-29T21:44:08.182Z,100584.63
2022-12-29T21:46:42.338Z,100605.44
2022-12-29T21:49:14.545Z,100615.84
2022-12-29T21:51:53.717Z,100614.94
2022-12-29T21:54:47.527Z,100614.06
2022-12-29T21:57:38.245Z,100618.44
2022-12-29T22:00:30.025Z,100628.00
2022-12-29T22:03:23.318Z,100634.06
2022-12-29T22:06:14.945Z,100642.75
2022-12-29T22:09:05.665Z,100642.72
2022-12-29T22:11:55.882Z,100646.22
2022-12-29T22:14:27.915Z,100641.91
2022-12-29T22:16:59.970Z,100646.28
2022-12-29T22:19:31.936Z,100647.03
2022-12-29T22:22:04.174Z,100658.34
2022-12-29T22:24:36.219Z,100663.53
2022-12-29T22:27:08.281Z,100658.31
2022-12-29T22:29:41.413Z,100646.16
2022-12-29T22:32:13.414Z,100653.09
2022-12-29T22:34:47.226Z,100654.81
2022-12-29T22:37:19.529Z,100653.97
2022-12-29T22:39:51.598Z,100660.91
2022-12-29T22:42:23.720Z,100653.09
2022-12-29T22:44:55.700Z,100656.50
2022-12-29T22:47:27.751Z,100657.38
2022-12-29T22:50:00.460Z,100656.53
2022-12-29T22:52:32.521Z,100650.47
2022-12-29T22:55:07.207Z,100655.66
2022-12-29T22:57:39.365Z,100656.50
2022-12-29T23:00:11.706Z,100663.44
2022-12-29T23:02:43.964Z,100663.41
2022-12-29T23:05:16.136Z,100659.09
2022-12-29T23:07:48.079Z,100663.41
2022-12-29T23:10:20.075Z,100656.44
2022-12-29T23:12:52.022Z,100659.13
2022-12-29T23:15:24.024Z,100660.00
2022-12-29T23:17:56.019Z,100659.94
2022-12-29T23:20:27.983Z,100674.63
2022-12-29T23:22:59.951Z,100678.94
2022-12-29T23:25:31.948Z,100689.34
2022-12-29T23:28:06.943Z,100691.03
2022-12-29T23:30:38.922Z,100702.31
2022-12-29T23:33:10.931Z,100711.84
2022-12-29T23:35:42.908Z,100711.88
2022-12-29T23:38:14.937Z,100723.16
2022-12-29T23:40:46.909Z,100733.53
2022-12-29T23:43:18.995Z,100733.59
2022-12-29T23:45:51.444Z,100738.75
2022-12-29T23:48:23.510Z,100747.41
2022-12-29T23:50:55.896Z,100749.19
2022-12-29T23:53:29.231Z,100761.34
2022-12-29T23:56:01.504Z,100759.59
2022-12-29T23:58:35.314Z,100777.88
